createdAt,value
2023-02-16T00:00:19.523Z,95.72
2023-02-16T00:03:22.635Z,95.44
2023-02-16T00:06:26.367Z,96.50
2023-02-16T00:09:28.888Z,97.39
2023-02-16T00:12:49.591Z,96.67
2023-02-16T00:15:52.247Z,95.92
2023-02-16T00:18:54.511Z,95.89
2023-02-16T00:21:59.077Z,95.80
2023-02-16T00:25:01.312Z,96.40
2023-02-16T00:28:08.000Z,96.76
2023-02-16T00:31:22.266Z,97.74
2023-02-16T00:34:32.938Z,99.01
2023-02-16T00:37:35.143Z,98.83
2023-02-16T00:40:38.016Z,99.42
2023-02-16T00:43:41.292Z,99.56
2023-02-16T00:46:45.049Z,99.97
2023-02-16T00:49:53.245Z,100.00
2023-02-16T00:52:58.342Z,100.00
2023-02-16T00:56:00.880Z,100.00
2023-02-16T00:59:06.174Z,98.95
2023-02-16T01:02:08.457Z,98.68
2023-02-16T01:05:11.345Z,97.90
2023-02-16T01:08:35.026Z,97.39
2023-02-16T01:11:39.289Z,97.49
2023-02-16T01:14:41.562Z,97.37
2023-02-16T01:17:44.381Z,97.66
2023-02-16T01:20:47.645Z,97.50
2023-02-16T01:23:50.273Z,97.01
2023-02-16T01:26:54.458Z,96.74
2023-02-16T01:29:56.970Z,97.27
2023-02-16T01:32:59.211Z,97.48
2023-02-16T01:36:01.686Z,97.25
2023-02-16T01:39:04.916Z,98.20
2023-02-16T01:42:30.749Z,97.52
2023-02-16T01:45:37.917Z,97.69
2023-02-16T01:48:41.157Z,97.48
2023-02-16T01:52:11.957Z,98.07
2023-02-16T01:55:24.745Z,97.08
2023-02-16T01:58:34.548Z,96.71
2023-02-16T02:01:36.966Z,97.28
2023-02-16T02:05:15.824Z,98.06
2023-02-16T02:08:33.363Z,97.85
2023-02-16T02:11:42.468Z,99.04
2023-02-16T02:14:45.018Z,98.48
2023-02-16T02:17:48.571Z,97.32
2023-02-16T02:21:41.145Z,96.85
2023-02-16T02:25:15.741Z,98.03
2023-02-16T02:28:32.381Z,99.76
2023-02-16T02:31:50.435Z,100.00
2023-02-16T02:34:53.024Z,100.00
2023-02-16T02:38:26.440Z,99.92
2023-02-16T02:42:06.193Z,100.00
2023-02-16T02:45:18.608Z,100.00
2023-02-16T02:48:22.458Z,100.00
2023-02-16T02:51:30.888Z,100.00
2023-02-16T02:54:59.049Z,100.00
2023-02-16T02:58:20.769Z,99.89
2023-02-16T03:01:25.020Z,100.00
2023-02-16T03:04:31.122Z,99.18
2023-02-16T03:07:48.736Z,99.65
2023-02-16T03:11:19.285Z,99.26
2023-02-16T03:14:48.039Z,98.82
2023-02-16T03:18:13.338Z,97.82
2023-02-16T03:21:35.180Z,97.74
2023-02-16T03:24:56.307Z,97.36
2023-02-16T03:28:21.336Z,97.51
2023-02-16T03:31:30.205Z,99.04
2023-02-16T03:34:35.852Z,98.07
2023-02-16T03:37:39.418Z,97.84
2023-02-16T03:40:45.008Z,98.38
2023-02-16T03:43:47.155Z,98.74
2023-02-16T03:46:50.408Z,99.20
2023-02-16T03:49:52.594Z,98.85
2023-02-16T03:53:06.730Z,98.30
2023-02-16T03:56:09.068Z,98.22
2023-02-16T03:59:11.518Z,99.64
2023-02-16T04:02:13.812Z,100.00
2023-02-16T04:05:16.323Z,100.00
2023-02-16T04:08:18.573Z,100.00
2023-02-16T04:11:39.868Z,100.00
2023-02-16T04:14:43.692Z,100.00
2023-02-16T04:17:46.801Z,99.53
2023-02-16T04:20:49.045Z,98.93
2023-02-16T04:23:51.510Z,98.02
2023-02-16T04:26:53.641Z,97.61
2023-02-16T04:29:56.045Z,98.31
2023-02-16T04:32:59.577Z,99.66
2023-02-16T04:36:02.165Z,99.10
2023-02-16T04:39:04.763Z,99.65
2023-02-16T04:42:07.309Z,98.88
2023-02-16T04:45:10.651Z,98.63
2023-02-16T04:48:13.050Z,98.00
2023-02-16T04:51:15.282Z,96.87
2023-02-16T04:54:17.712Z,96.62
2023-02-16T04:57:21.397Z,96.62
2023-02-16T05:00:24.079Z,97.44
2023-02-16T05:03:26.251Z,97.19
2023-02-16T05:06:28.710Z,97.22
2023-02-16T05:09:30.891Z,97.81
2023-02-16T05:12:51.864Z,97.85
2023-02-16T05:15:54.096Z,97.89
2023-02-16T05:18:58.906Z,99.02
2023-02-16T05:22:01.168Z,99.36
2023-02-16T05:25:03.864Z,99.76
2023-02-16T05:28:06.184Z,99.18
2023-02-16T05:31:08.716Z,98.90
2023-02-16T05:34:11.058Z,98.32
2023-02-16T05:37:15.218Z,97.46
2023-02-16T05:40:17.538Z,97.20
2023-02-16T05:43:19.988Z,97.21
2023-02-16T05:46:24.588Z,97.26
2023-02-16T05:49:27.104Z,97.24
2023-02-16T05:52:29.270Z,97.37
2023-02-16T05:55:31.703Z,98.02
2023-02-16T05:58:33.925Z,98.03
2023-02-16T06:01:36.365Z,98.70
2023-02-16T06:04:39.383Z,98.39
2023-02-16T06:07:41.514Z,97.96
2023-02-16T06:10:43.989Z,97.96
2023-02-16T06:13:46.166Z,97.25
2023-02-16T06:16:51.490Z,96.66
2023-02-16T06:19:54.253Z,97.84
2023-02-16T06:22:56.819Z,98.84
2023-02-16T06:25:58.987Z,99.48
2023-02-16T06:29:01.557Z,99.49
2023-02-16T06:32:04.235Z,98.52
2023-02-16T06:35:07.015Z,97.86
2023-02-16T06:38:09.118Z,97.97
2023-02-16T06:41:11.708Z,97.99
2023-02-16T06:44:15.803Z,98.81
2023-02-16T06:47:18.255Z,98.70
2023-02-16T06:50:20.543Z,98.21
2023-02-16T06:53:23.060Z,98.30
2023-02-16T06:56:25.432Z,98.60
2023-02-16T06:59:27.876Z,99.09
2023-02-16T07:02:30.019Z,98.85
2023-02-16T07:05:32.494Z,98.80
2023-02-16T07:08:35.895Z,99.23
2023-02-16T07:11:38.740Z,99.32
2023-02-16T07:14:43.071Z,98.78
2023-02-16T07:17:46.352Z,98.55
2023-02-16T07:20:49.075Z,99.08
2023-02-16T07:23:51.607Z,98.76
2023-02-16T07:26:55.047Z,98.87
2023-02-16T07:29:57.567Z,98.73
2023-02-16T07:32:59.874Z,98.81
2023-02-16T07:36:03.318Z,98.48
2023-02-16T07:39:05.658Z,98.23
2023-02-16T07:42:08.079Z,98.21
2023-02-16T07:45:10.236Z,98.38
2023-02-16T07:48:13.912Z,97.32
2023-02-16T07:51:30.765Z,96.58
2023-02-16T07:54:33.532Z,96.84
2023-02-16T07:57:38.759Z,96.61
2023-02-16T08:00:41.228Z,96.17
2023-02-16T08:03:43.775Z,95.85
2023-02-16T08:06:48.588Z,95.55
2023-02-16T08:09:51.196Z,95.38
2023-02-16T08:12:53.355Z,95.47
2023-02-16T08:15:55.779Z,95.74
2023-02-16T08:18:59.961Z,96.07
2023-02-16T08:22:02.809Z,96.04
2023-02-16T08:25:06.887Z,96.01
2023-02-16T08:28:09.680Z,96.00
2023-02-16T08:31:20.086Z,95.56
2023-02-16T08:34:24.079Z,95.38
2023-02-16T08:37:26.288Z,95.16
2023-02-16T08:40:30.159Z,94.88
2023-02-16T08:43:32.508Z,94.75
2023-02-16T08:46:37.187Z,94.20
2023-02-16T08:49:39.602Z,94.06
2023-02-16T08:52:42.077Z,93.38
2023-02-16T08:55:51.593Z,91.54
2023-02-16T08:58:54.057Z,90.38
2023-02-16T09:01:58.154Z,88.50
2023-02-16T09:05:01.117Z,86.89
2023-02-16T09:08:03.464Z,84.80
2023-02-16T09:11:08.926Z,83.75
2023-02-16T09:14:11.133Z,81.35
2023-02-16T09:17:14.301Z,80.07
2023-02-16T09:20:17.223Z,78.13
2023-02-16T09:23:20.537Z,77.60
2023-02-16T09:26:24.680Z,76.32
2023-02-16T09:29:27.178Z,75.18
2023-02-16T09:32:30.615Z,74.15
2023-02-16T09:35:33.085Z,74.07
2023-02-16T09:38:36.686Z,74.96
2023-02-16T09:42:05.559Z,75.26
2023-02-16T09:45:20.418Z,74.67
2023-02-16T09:48:37.379Z,74.58
2023-02-16T09:51:44.612Z,76.01
2023-02-16T09:54:51.857Z,75.14
2023-02-16T09:58:21.553Z,75.42
2023-02-16T10:01:47.810Z,75.47
2023-02-16T10:05:04.504Z,74.98
2023-02-16T10:08:13.307Z,75.17
2023-02-16T10:11:48.825Z,74.96
2023-02-16T10:15:01.370Z,75.08
2023-02-16T10:18:16.405Z,74.67
2023-02-16T10:21:26.295Z,75.48
2023-02-16T10:24:34.568Z,74.78
2023-02-16T10:27:45.701Z,74.26
2023-02-16T10:31:01.472Z,74.14
2023-02-16T10:34:06.805Z,73.58
2023-02-16T10:37:47.617Z,72.47
2023-02-16T10:41:01.434Z,72.65
2023-02-16T10:44:22.723Z,73.15
2023-02-16T10:47:36.828Z,73.26
2023-02-16T10:50:42.121Z,73.00
2023-02-16T10:53:50.948Z,72.90
2023-02-16T10:56:59.502Z,72.43
2023-02-16T11:00:06.736Z,72.75
2023-02-16T11:03:12.588Z,70.55
2023-02-16T11:06:17.955Z,70.12
2023-02-16T11:09:27.859Z,70.03
2023-02-16T11:12:33.443Z,70.36
2023-02-16T11:15:39.235Z,70.34
2023-02-16T11:18:45.385Z,69.49
2023-02-16T11:21:55.214Z,69.50
2023-02-16T11:25:22.561Z,69.44
2023-02-16T11:28:48.581Z,69.58
2023-02-16T11:31:50.857Z,69.88
2023-02-16T11:34:53.818Z,69.18
2023-02-16T11:37:56.073Z,68.71
2023-02-16T11:41:00.774Z,68.76
2023-02-16T11:44:04.103Z,69.67
2023-02-16T11:47:21.287Z,70.09
2023-02-16T11:50:38.434Z,70.06
2023-02-16T11:53:43.387Z,69.81
2023-02-16T11:57:02.394Z,70.10
2023-02-16T12:00:19.254Z,69.00
2023-02-16T12:03:31.456Z,67.57
2023-02-16T12:06:49.880Z,67.36
2023-02-16T12:10:31.283Z,67.16
2023-02-16T12:13:58.340Z,66.69
2023-02-16T12:17:07.862Z,67.49
2023-02-16T12:20:28.249Z,68.42
2023-02-16T12:23:39.881Z,68.51
2023-02-16T12:26:52.024Z,68.66
2023-02-16T12:30:03.196Z,67.82
2023-02-16T12:33:13.480Z,67.91
2023-02-16T12:36:25.489Z,67.15
2023-02-16T12:39:55.352Z,67.37
2023-02-16T12:43:22.505Z,67.69
2023-02-16T12:46:30.513Z,67.63
2023-02-16T12:49:55.152Z,67.66
2023-02-16T12:53:03.497Z,67.43
2023-02-16T12:56:14.440Z,67.45
2023-02-16T12:59:24.940Z,66.98
2023-02-16T13:02:43.216Z,66.95
2023-02-16T13:05:51.234Z,66.90
2023-02-16T13:09:16.216Z,66.11
2023-02-16T13:12:31.507Z,65.93
2023-02-16T13:15:38.272Z,65.57
2023-02-16T13:18:44.288Z,65.50
2023-02-16T13:21:52.806Z,66.13
2023-02-16T13:25:04.110Z,64.49
2023-02-16T13:28:23.081Z,63.15
2023-02-16T13:31:49.261Z,62.37
2023-02-16T13:35:30.138Z,58.79
2023-02-16T13:38:43.634Z,57.40
2023-02-16T13:42:13.232Z,58.43
2023-02-16T13:45:22.933Z,59.13
2023-02-16T13:48:39.339Z,59.12
2023-02-16T13:51:47.170Z,59.56
2023-02-16T13:54:50.050Z,60.00
2023-02-16T13:58:01.695Z,59.92
2023-02-16T14:01:39.105Z,59.71
2023-02-16T14:04:50.393Z,59.62
2023-02-16T14:08:11.845Z,59.99
2023-02-16T14:11:14.274Z,60.56
2023-02-16T14:14:28.626Z,61.29
2023-02-16T14:17:37.400Z,60.83
2023-02-16T14:20:39.624Z,61.45
2023-02-16T14:23:42.825Z,62.10
2023-02-16T14:26:59.445Z,61.80
2023-02-16T14:30:04.398Z,62.87
2023-02-16T14:33:12.445Z,63.40
2023-02-16T14:36:16.636Z,63.56
2023-02-16T14:39:24.756Z,63.81
2023-02-16T14:42:34.925Z,64.18
2023-02-16T14:45:59.096Z,64.02
2023-02-16T14:49:04.994Z,63.82
2023-02-16T14:52:37.145Z,64.31
2023-02-16T14:56:06.660Z,63.97
2023-02-16T14:59:32.789Z,63.85
2023-02-16T15:02:40.812Z,65.11
2023-02-16T15:05:49.458Z,65.76
2023-02-16T15:08:59.284Z,67.37
2023-02-16T15:12:23.048Z,68.13
2023-02-16T15:15:44.032Z,68.70
2023-02-16T15:18:53.468Z,69.03
2023-02-16T15:22:19.277Z,69.84
2023-02-16T15:25:34.717Z,70.31
2023-02-16T15:28:39.631Z,70.33
2023-02-16T15:31:41.997Z,71.40
2023-02-16T15:34:45.243Z,71.48
2023-02-16T15:37:47.799Z,72.04
2023-02-16T15:40:55.134Z,72.29
2023-02-16T15:43:58.711Z,72.38
2023-02-16T15:47:37.375Z,73.11
2023-02-16T15:50:39.728Z,73.86
2023-02-16T15:53:45.112Z,74.42
2023-02-16T15:56:48.986Z,74.91
2023-02-16T15:59:57.060Z,74.88
2023-02-16T16:03:01.087Z,75.59
2023-02-16T16:06:08.508Z,76.08
2023-02-16T16:09:27.769Z,76.32
2023-02-16T16:12:30.838Z,76.49
2023-02-16T16:15:45.254Z,76.84
2023-02-16T16:18:50.995Z,76.82
2023-02-16T16:21:54.673Z,76.72
2023-02-16T16:24:57.243Z,77.31
2023-02-16T16:27:59.963Z,77.31
2023-02-16T16:31:26.012Z,77.69
2023-02-16T16:34:34.230Z,77.94
2023-02-16T16:37:37.284Z,78.37
2023-02-16T16:40:40.063Z,78.86
2023-02-16T16:43:53.816Z,79.16
2023-02-16T16:46:56.254Z,79.35
2023-02-16T16:50:05.978Z,79.66
2023-02-16T16:53:43.121Z,79.64
2023-02-16T16:56:45.550Z,80.02
2023-02-16T16:59:47.724Z,80.32
2023-02-16T17:02:50.183Z,80.36
2023-02-16T17:05:52.488Z,80.11
2023-02-16T17:08:55.250Z,80.06
2023-02-16T17:11:58.439Z,80.29
2023-02-16T17:15:01.707Z,80.77
2023-02-16T17:18:04.842Z,81.13
2023-02-16T17:21:07.580Z,80.86
2023-02-16T17:24:10.263Z,81.01
2023-02-16T17:27:13.884Z,81.17
2023-02-16T17:30:16.226Z,80.57
2023-02-16T17:33:18.755Z,79.88
2023-02-16T17:36:22.583Z,79.10
2023-02-16T17:39:25.276Z,79.15
2023-02-16T17:42:28.323Z,79.19
2023-02-16T17:45:30.969Z,79.15
2023-02-16T17:48:33.309Z,79.11
2023-02-16T17:51:36.503Z,78.86
2023-02-16T17:54:39.132Z,78.31
2023-02-16T17:57:41.680Z,78.91
2023-02-16T18:00:45.111Z,79.72
2023-02-16T18:03:47.689Z,80.00
2023-02-16T18:06:50.764Z,79.92
2023-02-16T18:09:54.155Z,80.13
2023-02-16T18:12:56.311Z,80.23
2023-02-16T18:16:01.786Z,81.01
2023-02-16T18:19:04.508Z,81.34
2023-02-16T18:22:06.925Z,81.95
2023-02-16T18:25:09.217Z,81.97
2023-02-16T18:28:20.183Z,82.57
2023-02-16T18:31:22.472Z,82.98
2023-02-16T18:34:26.292Z,83.19
2023-02-16T18:37:28.838Z,84.03
2023-02-16T18:40:31.266Z,83.96
2023-02-16T18:43:35.760Z,84.24
2023-02-16T18:46:38.469Z,85.18
2023-02-16T18:49:41.842Z,85.30
2023-02-16T18:52:44.934Z,85.03
2023-02-16T18:55:47.153Z,85.13
2023-02-16T18:58:49.582Z,85.22
2023-02-16T19:01:56.273Z,84.40
2023-02-16T19:04:58.685Z,84.43
2023-02-16T19:08:00.911Z,85.01
2023-02-16T19:11:03.444Z,86.66
2023-02-16T19:14:05.625Z,87.21
2023-02-16T19:17:08.343Z,87.31
2023-02-16T19:20:14.485Z,87.41
2023-02-16T19:23:17.575Z,88.18
2023-02-16T19:26:20.031Z,88.40
2023-02-16T19:29:22.511Z,88.82
2023-02-16T19:32:24.738Z,88.56
2023-02-16T19:35:27.213Z,89.17
2023-02-16T19:38:29.687Z,89.74
2023-02-16T19:41:35.711Z,89.80
2023-02-16T19:44:39.308Z,88.99
2023-02-16T19:47:41.821Z,89.10
2023-02-16T19:50:44.438Z,88.80
2023-02-16T19:53:47.499Z,89.15
2023-02-16T19:56:49.652Z,89.11
2023-02-16T19:59:52.070Z,89.48
2023-02-16T20:02:54.301Z,90.42
2023-02-16T20:05:56.711Z,90.53
2023-02-16T20:09:00.752Z,90.88
2023-02-16T20:12:04.625Z,90.51
2023-02-16T20:15:07.065Z,90.18
2023-02-16T20:18:10.120Z,90.83
2023-02-16T20:21:20.905Z,91.09
2023-02-16T20:24:23.330Z,91.67
2023-02-16T20:27:27.737Z,91.41
2023-02-16T20:30:30.744Z,91.48
2023-02-16T20:33:32.949Z,91.47
2023-02-16T20:36:36.462Z,91.62
2023-02-16T20:39:38.638Z,91.45
2023-02-16T20:42:41.091Z,92.30
2023-02-16T20:45:43.313Z,91.97
2023-02-16T20:48:46.225Z,92.41
2023-02-16T20:51:48.466Z,92.80
2023-02-16T20:54:50.902Z,93.22
2023-02-16T20:57:53.115Z,93.24
2023-02-16T21:00:55.973Z,93.86
2023-02-16T21:03:59.915Z,94.30
2023-02-16T21:07:02.384Z,94.05
2023-02-16T21:10:07.590Z,93.44
2023-02-16T21:13:10.100Z,94.38
2023-02-16T21:16:14.113Z,94.74
2023-02-16T21:19:22.911Z,94.99
2023-02-16T21:22:25.634Z,94.17
2023-02-16T21:25:28.087Z,94.12
2023-02-16T21:28:30.421Z,94.43
2023-02-16T21:31:32.860Z,94.68
2023-02-16T21:34:35.406Z,95.38
2023-02-16T21:37:38.672Z,94.89
2023-02-16T21:41:12.934Z,95.00
2023-02-16T21:44:18.241Z,95.03
2023-02-16T21:47:39.173Z,94.90
2023-02-16T21:50:42.112Z,94.10
2023-02-16T21:53:44.344Z,94.27
2023-02-16T21:56:50.322Z,94.46
2023-02-16T21:59:52.713Z,94.95
2023-02-16T22:02:55.142Z,96.28
2023-02-16T22:06:02.375Z,95.69
2023-02-16T22:09:10.400Z,95.23
2023-02-16T22:12:12.864Z,95.33
2023-02-16T22:15:15.072Z,94.85
2023-02-16T22:18:17.444Z,94.86
2023-02-16T22:21:19.658Z,94.28
2023-02-16T22:24:22.077Z,93.95
2023-02-16T22:27:24.237Z,93.54
2023-02-16T22:30:26.743Z,93.58
2023-02-16T22:33:28.915Z,94.43
2023-02-16T22:36:31.500Z,94.61
2023-02-16T22:39:33.669Z,94.11
2023-02-16T22:42:38.648Z,94.50
2023-02-16T22:45:40.822Z,94.45
2023-02-16T22:48:44.597Z,95.03
2023-02-16T22:51:46.759Z,94.69
2023-02-16T22:54:52.284Z,94.46
2023-02-16T22:57:54.447Z,94.80
2023-02-16T23:00:56.886Z,94.47
2023-02-16T23:04:00.784Z,94.27
2023-02-16T23:07:03.266Z,94.48
2023-02-16T23:10:06.060Z,94.37
2023-02-16T23:13:09.492Z,94.46
2023-02-16T23:16:14.825Z,94.02
2023-02-16T23:19:21.456Z,93.48
2023-02-16T23:22:23.587Z,93.39
2023-02-16T23:25:35.462Z,93.94
2023-02-16T23:28:39.296Z,93.83
2023-02-16T23:31:43.897Z,94.03
2023-02-16T23:34:46.035Z,94.32
2023-02-16T23:37:48.541Z,94.95
2023-02-16T23:41:16.863Z,94.63
2023-02-16T23:44:19.314Z,94.81
2023-02-16T23:47:22.444Z,95.70
2023-02-16T23:50:25.041Z,95.27
2023-02-16T23:53:28.380Z,94.64
2023-02-16T23:56:30.968Z,94.96
2023-02-16T23:59:33.794Z,95.80
